Terminal Aerodrome Forecast
Issued by NWS Jackson, MS

Home | Current Version | Previous Version | Text Only | Print | Product List | Glossary On
Versions: 1 2 3 4 5 6 7 8 9 10 11 12 13 14 15 16
366
FTUS44 KJAN 231753
TAFHBG
TAF
KHBG 231753Z 2318/2418 15006KT P6SM VCSH BKN025
     FM231900 15007KT P6SM VCTS OVC020CB
     FM240000 15005KT P6SM VCSH OVC020
     FM240500 16005KT 3SM BR OVC007
     FM241700 18015G20KT P6SM OVC015=

USA.gov is the U.S. government's official web portal to all federal, state and local government web resources and services.